Airfield :
LOGIN :

Register | Disclaimer

   EN    FR    IT 

 










Legend :    VFR   Marginal VFR   IFR   Intensive IFR   Very Intensive IFR
Visi :
Ceiling :
>= 8 km
>= 3000ft
5 to 8 km
1000 to 3000 ft
1500m to 5 km
500 to 1000 ft
800 to 1500m
200 to 500 ft
< 800m
< 200 ft
Symbols :   Thunderstorms  Fog  Heavy snow  Heavy precipitations  Wind > 20 kt
SIGMETs :     Misc.  Thunderstorms  Icing  Turbulence  Mountain Waves  Volcanic Ashes







- Airport Elevation : 1455 ft


ETIH - Hohenfels Army Air Field

CURRENT METAR :
  • 200319Z AUTO 26011G16KT 9999 OVC014 03/02 A3010 RMK AO2 SLP213 $

EXPIRED METARs :
  • 200256Z AUTO 28011G16KT 9999 OVC016 03/02 A3010 RMK AO2 SLP213 60000 T00290022 50003 $
  • 200206Z AUTO 27010KT 9999 OVC015 03/02 A3010 RMK AO2 SLP213 $
  • 200156Z AUTO 29010G19KT 9999 OVC014 03/02 A3010 RMK AO2 SLP213 T00310022 $
  • 200056Z AUTO 27010G19KT 9999 SCT018 BKN024 03/02 A3009 RMK AO2 RAB2356E05 CIG 016V024 SLP210 P0000 T00290022 $

Expired Forecast.
No reported NOTAMs for that airfield.



MET'MAP, your aeronautical weather chart ! - Copyright ORBIFLY December 2007 - Disclaimer

ORBIFLY MET'MAP TEAM :

Programming & Development : Alexandra Zaïnal
Concept & Development : Baudouin d'Aumeries
Co-Development & Prog : Marc-Olivier Méhu
Technical & hardware support : Manuel Goepfert

Contact : metmap@orbifly.com




SOURCES & CREDITS :

   NOAA